Terminal Aerodrome Forecast
Issued by NWS Sioux Falls, SD

Home | Current Version | Previous Version | Text Only | Print | Product List | Glossary Off
Versions: 1 2 3 4 5 6 7 8 9 10 11 12 13 14

000
FTUS43 KFSD 242320
TAFFSD
TAF
KFSD 242320Z 2500/2524 34013G24KT P6SM SCT025 BKN200
     FM250200 33011KT P6SM SCT020 SCT250
     FM250700 31007KT P6SM SKC
     FM251600 25006KT P6SM SCT120
     FM251900 21009KT P6SM SCT120=

USA.gov is the U.S. government's official web portal to all federal, state and local government web resources and services.